Time;durP1;ratioP1;P1;durP2;ratioP2;P2;SDS_P1;SDS_P2;PMS_P1;PMS_P2;Temp;Humidity;BMP_temperature;BMP_pressure;BME280_temperature;BME280_humidity;BME280_pressure;Samples;Min_cycle;Max_cycle;Signal;HPM_P1;HPM_P2
2021/09/07 00:01:16;;;;;;;;;13.75;10.00;;;;;21.34;48.84;101445.56;5095910;27;61969;-60
2021/09/07 00:03:42;;;;;;;;;13.00;10.25;;;;;21.31;48.58;101451.28;5096270;27;47634;-60
2021/09/07 00:06:07;;;;;;;;;9.25;8.50;;;;;21.28;49.17;101451.66;5096479;27;46030;-60
2021/09/07 00:08:33;;;;;;;;;8.75;8.00;;;;;21.26;49.03;101445.66;5096799;27;45411;-60
2021/09/07 00:10:58;;;;;;;;;11.00;11.00;;;;;21.21;49.29;101448.91;5096591;27;45279;-60
2021/09/07 00:13:23;;;;;;;;;9.75;9.75;;;;;21.16;48.77;101443.28;5096611;27;45510;-61
2021/09/07 00:15:49;;;;;;;;;11.00;8.75;;;;;21.09;49.48;101448.53;5095591;27;66634;-60
2021/09/07 00:18:14;;;;;;;;;9.50;7.50;;;;;21.04;49.35;101446.41;5096251;27;45745;-60
2021/09/07 00:20:40;;;;;;;;;9.00;8.00;;;;;21.02;49.50;101451.09;5095335;27;60330;-61
2021/09/07 00:23:05;;;;;;;;;10.50;9.50;;;;;20.99;49.81;101447.97;5095460;27;65029;-60
2021/09/07 00:25:30;;;;;;;;;9.50;9.25;;;;;20.99;49.40;101442.63;5096088;27;46398;-60
2021/09/07 00:27:56;;;;;;;;;12.25;8.75;;;;;20.95;49.43;101444.00;5098006;27;65305;-60
2021/09/07 00:30:21;;;;;;;;;9.25;9.00;;;;;20.93;49.92;101448.69;5099298;27;58497;-60
2021/09/07 00:32:46;;;;;;;;;10.00;9.00;;;;;20.89;49.99;101450.91;5098651;27;70555;-60
2021/09/07 00:35:12;;;;;;;;;12.50;11.00;;;;;20.84;49.64;101440.75;5098813;27;70231;-61
2021/09/07 00:37:41;;;;;;;;;12.00;9.75;;;;;20.78;50.24;101446.81;5099636;27;45348;-61
2021/09/07 00:40:07;;;;;;;;;11.25;10.25;;;;;20.74;50.23;101437.47;5081414;27;45346;-61
2021/09/07 00:42:34;;;;;;;;;11.75;11.00;;;;;20.70;50.23;101434.34;5099581;27;45386;-60
2021/09/07 00:45:01;;;;;;;;;12.25;8.25;;;;;20.67;50.30;101431.19;5081113;27;47078;-60
2021/09/07 00:47:26;;;;;;;;;9.00;9.00;;;;;20.64;50.36;101423.59;5099360;27;45269;-60
2021/09/07 00:49:51;;;;;;;;;10.50;10.00;;;;;20.63;50.62;101429.94;5080214;27;53724;-60
2021/09/07 00:52:17;;;;;;;;;8.75;8.25;;;;;20.60;50.68;101426.63;5098756;27;65641;-60
2021/09/07 00:54:43;;;;;;;;;13.00;10.00;;;;;20.59;50.87;101427.63;5098365;27;71801;-60
2021/09/07 00:57:09;;;;;;;;;10.25;8.50;;;;;20.58;50.78;101419.78;5080909;27;49809;-60
2021/09/07 00:59:34;;;;;;;;;8.25;8.00;;;;;20.53;51.41;101425.66;5099314;27;45314;-60
2021/09/07 01:02:00;;;;;;;;;10.00;9.00;;;;;20.48;51.15;101425.38;5080675;27;45596;-60
2021/09/07 01:04:25;;;;;;;;;9.50;9.50;;;;;;;;5098393;27;45338;-61
2021/09/07 01:06:50;;;;;;;;;16.25;12.50;;;;;20.38;51.32;101417.63;5098287;27;67922;-60
2021/09/07 01:09:16;;;;;;;;;11.00;8.00;;;;;20.34;51.77;101410.16;5098710;27;55669;-60
2021/09/07 01:11:41;;;;;;;;;12.00;11.00;;;;;20.30;51.71;101407.03;5099184;27;45362;-61
2021/09/07 01:14:06;;;;;;;;;12.00;9.75;;;;;20.25;51.73;101410.22;5097967;27;70224;-61
2021/09/07 01:16:32;;;;;;;;;13.25;11.00;;;;;20.23;51.81;101411.41;5098182;27;66606;-60
2021/09/07 01:18:59;;;;;;;;;9.75;9.75;;;;;20.20;51.83;101406.44;5099025;27;45320;-61
2021/09/07 01:21:25;;;;;;;;;10.75;9.00;;;;;20.17;52.07;101407.59;5080369;27;45454;-61
2021/09/07 01:23:50;;;;;;;;;9.25;9.00;;;;;20.12;52.02;101397.47;5080458;27;48789;-60
2021/09/07 01:26:17;;;;;;;;;9.50;8.00;;;;;20.10;52.51;101402.16;5098835;27;45431;-60
2021/09/07 01:28:42;;;;;;;;;12.75;9.00;;;;;20.05;52.03;101393.03;5098780;27;45276;-61
2021/09/07 01:31:08;;;;;;;;;10.50;9.00;;;;;20.08;52.18;101398.03;5099012;27;45696;-60
2021/09/07 01:33:34;;;;;;;;;9.75;9.75;;;;;20.05;52.30;101398.38;5098535;27;45355;-60
2021/09/07 01:36:00;;;;;;;;;13.00;11.75;;;;;20.02;52.48;101395.06;5080457;27;45415;-61
2021/09/07 01:38:26;;;;;;;;;12.00;10.50;;;;;20.00;52.57;101399.72;5097514;27;45383;-60
2021/09/07 01:40:51;;;;;;;;;12.75;11.25;;;;;19.99;52.85;101390.06;5080399;27;45248;-60
2021/09/07 01:43:17;;;;;;;;;11.25;8.75;;;;;19.99;52.45;101395.41;5098254;27;46008;-61
2021/09/07 01:45:50;;;;;;;;;11.00;11.00;;;;;19.96;52.59;101390.44;5097743;27;65157;-61
2021/09/07 01:48:17;;;;;;;;;12.00;10.25;;;;;19.95;52.92;101387.91;5098661;27;45426;-60
2021/09/07 01:50:42;;;;;;;;;11.50;11.25;;;;;19.94;52.74;101391.59;5098500;27;45502;-61
2021/09/07 01:53:08;;;;;;;;;13.25;11.75;;;;;19.93;52.66;101385.44;5097973;27;56259;-60
2021/09/07 01:55:33;;;;;;;;;11.00;11.00;;;;;19.93;52.82;101385.44;5098134;27;48391;-61
2021/09/07 01:57:58;;;;;;;;;13.75;11.00;;;;;19.93;53.05;101377.44;5097542;27;61479;-60
2021/09/07 02:00:24;;;;;;;;;10.00;9.00;;;;;19.92;52.79;101378.44;5098310;27;45392;-60
2021/09/07 02:02:49;;;;;;;;;11.50;10.00;;;;;19.91;53.18;101382.13;5097257;27;69897;-59
2021/09/07 02:05:15;;;;;;;;;9.25;9.00;;;;;19.89;53.30;101380.63;5098228;27;45247;-60
2021/09/07 02:07:40;;;;;;;;;13.50;12.75;;;;;19.83;52.98;101377.66;5097512;27;62702;-61
2021/09/07 02:10:07;;;;;;;;;11.75;10.50;;;;;19.79;53.27;101380.84;5079149;27;65850;-61
2021/09/07 02:12:32;;;;;;;;;12.75;11.50;;;;;19.76;53.37;101383.84;5098019;27;45297;-61
2021/09/07 02:14:57;;;;;;;;;15.00;12.00;;;;;19.73;53.63;101385.88;5079812;27;45340;-60
2021/09/07 02:17:24;;;;;;;;;11.25;9.25;;;;;19.73;53.43;101388.53;5096991;27;68466;-60
2021/09/07 02:19:50;;;;;;;;;10.50;10.50;;;;;19.72;53.73;101386.06;5098092;27;45789;-60
2021/09/07 02:22:16;;;;;;;;;12.00;12.00;;;;;19.70;53.79;101386.22;5097436;27;48445;-61
2021/09/07 02:24:41;;;;;;;;;14.25;12.00;;;;;19.69;54.02;101381.88;5097042;27;68646;-61
2021/09/07 02:27:07;;;;;;;;;12.50;11.00;;;;;19.67;54.19;101383.09;5098075;27;45744;-61
2021/09/07 02:29:32;;;;;;;;;15.25;13.50;;;;;19.64;53.91;101386.91;5097226;27;60153;-61
2021/09/07 02:31:57;;;;;;;;;12.75;11.50;;;;;19.65;54.25;101382.41;5097681;27;45507;-61
2021/09/07 02:34:23;;;;;;;;;12.50;12.25;;;;;19.60;54.37;101374.97;5097834;27;45423;-61
2021/09/07 02:36:48;;;;;;;;;13.75;11.25;;;;;19.58;54.20;101368.97;5096756;27;67669;-61
2021/09/07 02:39:14;;;;;;;;;11.00;10.25;;;;;19.54;54.49;101362.34;5096888;27;67368;-61
2021/09/07 02:41:39;;;;;;;;;11.75;10.75;;;;;19.53;54.30;101360.69;5097507;27;45551;-61
2021/09/07 02:44:05;;;;;;;;;13.00;10.00;;;;;19.49;54.15;101359.38;5079274;27;45308;-62
2021/09/07 02:46:30;;;;;;;;;15.00;12.00;;;;;19.45;54.27;101360.72;5096780;27;63831;-61
2021/09/07 02:48:56;;;;;;;;;14.25;11.50;;;;;19.41;54.26;101353.06;5097599;27;45212;-60
2021/09/07 02:51:21;;;;;;;;;10.75;9.25;;;;;19.40;54.59;101353.22;5096973;27;46588;-61
2021/09/07 02:53:47;;;;;;;;;10.50;9.75;;;;;19.42;54.82;101356.53;5096633;27;45295;-60
2021/09/07 02:56:12;;;;;;;;;13.00;11.00;;;;;19.41;54.81;101349.56;5096535;27;65408;-61
2021/09/07 02:58:37;;;;;;;;;12.75;12.00;;;;;19.39;54.91;101347.09;5097073;27;52900;-61
2021/09/07 03:01:03;;;;;;;;;15.00;13.00;;;;;19.37;55.03;101338.44;5096653;27;59113;-61
2021/09/07 03:03:28;;;;;;;;;14.50;11.00;;;;;19.36;54.91;101343.91;5096953;27;45422;-61
2021/09/07 03:05:54;;;;;;;;;10.50;10.00;;;;;19.34;54.73;101344.09;5097417;27;45302;-61
2021/09/07 03:08:19;;;;;;;;;11.75;11.25;;;;;19.33;55.14;101347.78;5097047;27;45350;-60
2021/09/07 03:10:45;;;;;;;;;13.50;12.00;;;;;19.32;55.00;101348.78;5096126;27;68330;-60
2021/09/07 03:13:10;;;;;;;;;14.50;11.50;;;;;19.31;55.16;101341.78;5096345;27;63399;-61
2021/09/07 03:15:38;;;;;;;;;11.25;10.50;;;;;19.27;55.14;101341.31;5097256;27;45298;-61
2021/09/07 03:18:03;;;;;;;;;13.25;12.00;;;;;19.24;55.23;101339.00;5078290;27;45411;-60
2021/09/07 03:20:29;;;;;;;;;16.50;10.50;;;;;19.21;55.11;101341.16;5096850;27;45447;-60
2021/09/07 03:22:54;;;;;;;;;13.25;12.00;;;;;19.18;55.11;101334.38;5095925;27;65510;-61
2021/09/07 03:25:20;;;;;;;;;13.50;11.50;;;;;19.18;55.31;101339.69;5096372;27;59230;-60
2021/09/07 03:27:45;;;;;;;;;12.50;12.00;;;;;19.16;55.45;101330.19;5097098;27;45421;-61
2021/09/07 03:30:11;;;;;;;;;16.75;12.00;;;;;19.16;55.86;101332.84;5096828;27;46105;-60
2021/09/07 03:32:36;;;;;;;;;10.25;10.00;;;;;19.12;55.62;101335.06;5097018;27;45380;-60
2021/09/07 03:35:03;;;;;;;;;13.75;11.00;;;;;19.10;55.75;101321.91;5097060;27;45323;-61
2021/09/07 03:37:28;;;;;;;;;13.75;13.75;;;;;19.07;55.91;101313.44;5097003;27;45339;-61
2021/09/07 03:39:54;;;;;;;;;10.50;10.25;;;;;19.03;55.91;101312.97;5096595;27;47089;-60
2021/09/07 03:42:19;;;;;;;;;13.25;9.50;;;;;18.99;55.86;101314.31;5096636;27;48439;-61
2021/09/07 03:44:44;;;;;;;;;10.50;10.25;;;;;18.95;55.85;101315.63;5096299;27;57065;-60
2021/09/07 03:47:10;;;;;;;;;13.75;10.75;;;;;18.92;55.68;101324.78;5095852;27;66623;-60
2021/09/07 03:49:35;;;;;;;;;12.50;10.25;;;;;18.91;56.10;101319.63;5095779;27;70152;-60
2021/09/07 03:52:00;;;;;;;;;14.75;11.00;;;;;18.90;56.06;101312.63;5096053;27;58687;-61
2021/09/07 03:54:26;;;;;;;;;14.50;14.50;;;;;18.88;56.12;101319.97;5096798;27;45736;-61
2021/09/07 03:56:51;;;;;;;;;14.50;13.25;;;;;18.87;56.24;101321.78;5096819;27;45338;-61
2021/09/07 03:59:17;;;;;;;;;15.25;14.00;;;;;18.87;56.42;101320.97;5095817;27;64466;-60
2021/09/07 04:01:42;;;;;;;;;12.50;12.00;;;;;18.84;56.59;101319.47;5097442;27;45364;-61
2021/09/07 04:04:10;;;;;;;;;14.50;13.00;;;;;18.82;56.20;101314.31;5100167;27;45411;-60
2021/09/07 04:06:36;;;;;;;;;9.50;9.50;;;;;18.81;56.35;101319.84;5100188;27;45165;-61
2021/09/07 04:09:02;;;;;;;;;15.25;12.75;;;;;18.81;56.34;101322.50;5099733;27;46143;-60
2021/09/07 04:11:27;;;;;;;;;16.50;13.50;;;;;18.80;56.50;101319.00;5081322;27;45703;-60
2021/09/07 04:13:52;;;;;;;;;12.75;10.25;;;;;18.81;56.70;101322.50;5099477;27;60636;-61
2021/09/07 04:16:18;;;;;;;;;13.25;12.00;;;;;18.79;56.64;101325.31;5100095;27;45337;-61
2021/09/07 04:18:43;;;;;;;;;12.50;11.00;;;;;18.73;56.92;101330.50;5099929;27;45602;-61
2021/09/07 04:21:11;;;;;;;;;15.00;13.50;;;;;18.69;56.98;101330.00;5099247;27;51635;-61
2021/09/07 04:23:37;;;;;;;;;15.50;13.25;;;;;18.65;57.25;101339.31;5099960;27;45402;-60
2021/09/07 04:26:02;;;;;;;;;13.50;12.75;;;;;18.60;57.04;101337.19;5099000;27;45319;-61
2021/09/07 04:28:28;;;;;;;;;14.75;12.75;;;;;18.57;56.96;101336.69;5098609;27;45366;-60
2021/09/07 04:30:56;;;;;;;;;15.25;13.50;;;;;18.54;57.16;101337.84;5099081;27;64784;-60
2021/09/07 04:33:22;;;;;;;;;13.50;13.50;;;;;18.51;57.16;101339.03;5099654;27;45300;-61
2021/09/07 04:35:48;;;;;;;;;16.25;14.25;;;;;18.50;57.44;101340.03;5099124;27;59484;-60
2021/09/07 04:38:13;;;;;;;;;14.50;13.00;;;;;18.46;57.74;101349.34;5098962;27;62338;-61
2021/09/07 04:40:38;;;;;;;;;10.00;10.00;;;;;18.44;57.96;101345.19;5098653;27;66897;-61
2021/09/07 04:43:04;;;;;;;;;15.25;13.75;;;;;18.41;58.12;101343.69;5098797;27;58787;-60
2021/09/07 04:45:29;;;;;;;;;11.00;11.00;;;;;18.37;58.29;101353.03;5080224;27;56456;-61
2021/09/07 04:47:55;;;;;;;;;16.00;12.25;;;;;18.35;58.45;101355.84;5099221;27;45814;-61
2021/09/07 04:50:20;;;;;;;;;15.00;13.00;;;;;18.32;58.51;101344.72;5098348;27;72807;-60
2021/09/07 04:52:45;;;;;;;;;14.50;12.25;;;;;18.31;58.63;101346.53;5099599;27;45425;-60
2021/09/07 04:55:11;;;;;;;;;13.50;12.25;;;;;18.30;58.24;101347.53;5098509;27;63999;-61
2021/09/07 04:57:36;;;;;;;;;18.75;16.00;;;;;18.29;58.43;101350.34;5098476;27;66355;-61
2021/09/07 05:00:02;;;;;;;;;14.75;14.25;;;;;18.26;58.28;101348.03;5098367;27;68090;-61
2021/09/07 05:02:27;;;;;;;;;17.00;12.75;;;;;18.24;58.03;101342.91;5099237;27;45525;-60
2021/09/07 05:04:52;;;;;;;;;14.75;14.00;;;;;18.23;58.37;101346.56;5080352;27;50930;-61
2021/09/07 05:07:18;;;;;;;;;19.25;15.75;;;;;18.25;58.37;101349.88;5098000;27;73821;-61
2021/09/07 05:09:43;;;;;;;;;15.50;14.25;;;;;18.26;58.11;101350.69;5098533;27;58088;-60
2021/09/07 05:12:08;;;;;;;;;16.00;15.50;;;;;18.26;58.38;101351.53;5098087;27;63614;-61
2021/09/07 05:14:34;;;;;;;;;17.00;14.00;;;;;18.24;58.08;101354.34;5080568;27;45442;-60
2021/09/07 05:16:59;;;;;;;;;15.50;13.75;;;;;18.27;58.33;101357.69;5098147;27;45418;-60
2021/09/07 05:19:25;;;;;;;;;15.75;15.25;;;;;18.28;58.26;101359.34;5098033;27;67735;-61
2021/09/07 05:21:50;;;;;;;;;18.75;16.25;;;;;18.26;58.12;101356.00;5097642;27;65471;-61
2021/09/07 05:24:15;;;;;;;;;16.75;14.25;;;;;18.29;58.35;101361.00;5098258;27;57371;-61
2021/09/07 05:26:41;;;;;;;;;15.25;15.25;;;;;18.28;58.27;101362.81;5097694;27;73549;-61
2021/09/07 05:29:06;;;;;;;;;21.00;18.50;;;;;18.29;58.39;101356.50;5097912;27;68088;-60
2021/09/07 05:31:32;;;;;;;;;21.25;18.75;;;;;18.28;58.59;101360.16;5098759;27;45292;-61
2021/09/07 05:33:58;;;;;;;;;24.25;19.75;;;;;18.26;58.39;101353.34;5098656;27;45375;-60
2021/09/07 05:36:23;;;;;;;;;20.00;18.75;;;;;18.26;58.70;101358.69;5098300;27;45423;-60
2021/09/07 05:38:48;;;;;;;;;21.50;18.00;;;;;18.28;58.44;101364.66;5098482;27;45396;-61
2021/09/07 05:41:14;;;;;;;;;22.00;18.50;;;;;18.29;58.65;101366.31;5097501;27;69431;-60
2021/09/07 05:43:39;;;;;;;;;22.75;18.75;;;;;18.28;58.48;101359.34;5097470;27;63658;-59
2021/09/07 05:46:05;;;;;;;;;20.50;18.00;;;;;18.28;58.57;101364.66;5098226;27;45326;-61
2021/09/07 05:48:30;;;;;;;;;18.75;17.50;;;;;18.29;58.59;101361.00;5097304;27;66061;-61
2021/09/07 05:50:55;;;;;;;;;20.00;18.50;;;;;18.29;58.56;101364.47;5097785;27;53960;-61
2021/09/07 05:53:21;;;;;;;;;18.25;16.75;;;;;18.29;58.48;101366.31;5097459;27;45311;-61
2021/09/07 05:55:46;;;;;;;;;19.25;16.50;;;;;18.31;58.23;101374.97;5097669;27;55522;-60
2021/09/07 05:58:11;;;;;;;;;17.00;15.00;;;;;18.32;58.43;101371.31;5097642;27;54822;-61
2021/09/07 06:00:37;;;;;;;;;31.75;31.00;;;;;18.31;58.60;101364.31;5097677;27;57616;-61
2021/09/07 06:03:08;;;;;;;;;19.25;18.00;;;;;18.35;58.39;101370.97;5097247;27;65402;-61
2021/09/07 06:05:33;;;;;;;;;14.50;14.00;;;;;18.36;58.75;101368.13;5097032;27;45381;-61
2021/09/07 06:07:58;;;;;;;;;16.75;13.75;;;;;18.39;58.72;101372.31;5096806;27;69509;-60
2021/09/07 06:10:24;;;;;;;;;19.50;15.25;;;;;18.43;58.82;101373.63;5097359;27;59512;-60
2021/09/07 06:12:49;;;;;;;;;18.00;16.75;;;;;18.47;58.88;101374.97;5097142;27;61416;-61
2021/09/07 06:15:15;;;;;;;;;19.25;16.25;;;;;18.53;58.86;101379.63;5096969;27;62462;-61
2021/09/07 06:17:40;;;;;;;;;17.75;16.00;;;;;18.58;58.68;101379.09;5097488;27;47711;-60
2021/09/07 06:20:06;;;;;;;;;16.00;13.00;;;;;18.63;59.06;101373.25;5096931;27;67001;-61
2021/09/07 06:22:31;;;;;;;;;14.00;13.50;;;;;18.71;58.65;101373.25;5097667;27;45532;-61
2021/09/07 06:24:57;;;;;;;;;14.25;14.25;;;;;18.77;58.63;101369.91;5096739;27;46151;-61
2021/09/07 06:27:22;;;;;;;;;16.00;14.00;;;;;18.89;58.62;101372.22;5097644;27;45276;-60
2021/09/07 06:29:47;;;;;;;;;15.50;15.25;;;;;18.98;58.45;101373.91;5096845;27;61594;-60
2021/09/07 06:32:17;;;;;;;;;15.00;13.00;;;;;19.09;58.51;101376.16;5096883;27;56946;-61
2021/09/07 06:34:42;;;;;;;;;16.00;12.00;;;;;19.18;58.16;101371.66;5079993;27;45272;-61
2021/09/07 06:37:07;;;;;;;;;16.25;15.00;;;;;19.26;58.06;101373.44;5097805;27;45280;-60
2021/09/07 06:39:33;;;;;;;;;13.75;13.75;;;;;19.33;58.13;101374.41;5096825;27;63281;-61
2021/09/07 06:41:58;;;;;;;;;16.75;15.25;;;;;19.37;58.23;101375.72;5097416;27;45390;-61
2021/09/07 06:44:24;;;;;;;;;17.00;15.00;;;;;19.48;58.17;101377.19;5096607;27;56588;-61
2021/09/07 06:46:49;;;;;;;;;18.50;16.25;;;;;19.57;58.07;101377.97;5096060;27;67996;-60
2021/09/07 06:49:14;;;;;;;;;17.00;14.25;;;;;19.71;57.80;101381.72;5096473;27;60496;-60
2021/09/07 06:51:40;;;;;;;;;15.50;14.25;;;;;19.80;57.75;101374.50;5096182;27;64350;-60
2021/09/07 06:54:05;;;;;;;;;16.75;16.50;;;;;19.93;57.50;101374.78;5096855;27;45457;-61
2021/09/07 06:56:31;;;;;;;;;22.00;21.75;;;;;20.07;57.29;101385.69;5096221;27;66702;-60
2021/09/07 06:58:56;;;;;;;;;16.00;13.75;;;;;20.23;56.79;101387.41;5097250;27;45817;-62
2021/09/07 07:01:21;;;;;;;;;24.50;23.00;;;;;20.39;56.27;101379.25;5096883;27;47535;-60
2021/09/07 07:03:47;;;;;;;;;19.50;17.50;;;;;20.57;56.22;101381.59;5097067;27;46055;-61
2021/09/07 07:06:12;;;;;;;;;16.50;14.00;;;;;20.75;55.71;101381.22;5096466;27;64963;-61
2021/09/07 07:08:37;;;;;;;;;14.00;12.50;;;;;20.96;55.34;101382.34;5096530;27;64322;-60
2021/09/07 07:11:03;;;;;;;;;15.50;13.00;;;;;21.16;54.87;101384.47;5096355;27;63643;-61
2021/09/07 07:13:28;;;;;;;;;14.50;13.25;;;;;21.33;54.22;101380.59;5096917;27;45310;-61
2021/09/07 07:15:53;;;;;;;;;12.25;12.25;;;;;21.48;54.58;101369.03;5096256;27;63793;-61
2021/09/07 07:18:19;;;;;;;;;15.75;12.00;;;;;21.68;54.26;101381.81;5096228;27;68404;-61
2021/09/07 07:20:44;;;;;;;;;15.75;15.00;;;;;21.86;53.70;101378.72;5095492;27;45378;-60
2021/09/07 07:23:10;;;;;;;;;15.50;15.25;;;;;22.03;52.83;101385.47;5094694;27;69713;-62
2021/09/07 07:25:35;;;;;;;;;16.50;14.50;;;;;22.20;52.16;101382.53;5096319;27;45362;-60
2021/09/07 07:28:00;;;;;;;;;15.00;14.75;;;;;22.34;52.49;101384.28;5095875;27;63570;-61
2021/09/07 07:30:26;;;;;;;;;17.00;16.25;;;;;22.52;52.09;101388.38;5095784;27;70124;-62
2021/09/07 07:32:52;;;;;;;;;18.25;15.50;;;;;22.71;51.53;101389.53;5096574;27;45810;-62
2021/09/07 07:35:18;;;;;;;;;12.75;11.25;;;;;22.86;50.59;101388.59;5096269;27;45739;-62
2021/09/07 07:37:43;;;;;;;;;15.75;13.50;;;;;23.00;50.57;101386.81;5077116;27;45266;-61
2021/09/07 07:40:09;;;;;;;;;12.75;12.00;;;;;23.18;50.47;101392.47;5089338;27;50242;-61
2021/09/07 07:42:34;;;;;;;;;14.00;13.00;;;;;23.35;49.82;101392.16;5089706;27;45860;-62
2021/09/07 07:44:59;;;;;;;;;15.00;13.00;;;;;23.54;48.69;101394.09;5085318;27;45421;-61
2021/09/07 07:47:25;;;;;;;;;18.00;15.00;;;;;23.73;47.93;101394.34;5070771;27;60014;-62
2021/09/07 07:49:50;;;;;;;;;14.25;13.00;;;;;23.93;47.56;101398.91;5085568;27;54713;-62
2021/09/07 07:52:16;;;;;;;;;15.75;13.75;;;;;24.09;47.18;101397.75;5085436;27;68266;-62
2021/09/07 07:54:41;;;;;;;;;15.25;13.50;;;;;24.23;46.56;101398.56;5088275;27;45515;-61
2021/09/07 07:57:07;;;;;;;;;13.75;11.25;;;;;24.38;46.03;101406.41;5085554;27;45412;-61
2021/09/07 07:59:32;;;;;;;;;21.25;19.50;;;;;24.54;46.14;101406.00;5083416;27;45639;-60
2021/09/07 08:01:57;;;;;;;;;14.75;13.50;;;;;24.70;45.52;101410.09;5090267;27;59741;-61
2021/09/07 08:04:23;;;;;;;;;15.75;14.00;;;;;24.85;44.71;101407.22;5090139;27;70757;-60
2021/09/07 08:06:48;;;;;;;;;15.00;13.50;;;;;25.01;44.37;101405.09;5088907;27;63684;-62
2021/09/07 08:09:14;;;;;;;;;12.25;11.25;;;;;25.15;44.23;101411.25;5082269;27;46160;-61
2021/09/07 08:11:39;;;;;;;;;12.25;10.25;;;;;25.30;43.51;101411.00;5065163;27;73111;-61
2021/09/07 08:14:05;;;;;;;;;15.50;10.50;;;;;25.50;43.46;101407.44;5070487;27;70843;-61
2021/09/07 08:16:31;;;;;;;;;12.00;12.00;;;;;25.68;43.14;101409.41;5080627;27;45446;-61
2021/09/07 08:18:56;;;;;;;;;12.75;11.75;;;;;25.84;42.52;101414.28;5079128;27;70340;-62
2021/09/07 08:21:22;;;;;;;;;13.25;10.00;;;;;26.06;42.50;101405.81;5078474;27;72125;-62
2021/09/07 08:23:47;;;;;;;;;14.25;10.25;;;;;26.27;41.54;101409.22;5079579;27;45482;-61
2021/09/07 08:26:12;;;;;;;;;14.25;12.25;;;;;26.48;41.38;101406.16;5086211;27;45950;-62
2021/09/07 08:28:38;;;;;;;;;13.25;11.75;;;;;26.64;40.55;101409.28;5085062;27;63346;-62
2021/09/07 08:31:03;;;;;;;;;14.75;13.75;;;;;26.71;40.63;101404.66;5065342;27;47035;-59
2021/09/07 08:33:29;;;;;;;;;12.25;11.00;;;;;26.85;40.52;101408.06;5086728;27;52086;-60
2021/09/07 08:35:54;;;;;;;;;15.00;13.00;;;;;26.98;40.15;101412.53;5088076;27;45292;-62
2021/09/07 08:38:19;;;;;;;;;12.00;11.00;;;;;27.09;40.09;101411.75;5069333;27;57644;-61
2021/09/07 08:40:45;;;;;;;;;16.25;13.50;;;;;27.24;39.76;101415.94;5090532;27;63314;-62
2021/09/07 08:43:10;;;;;;;;;15.00;12.75;;;;;27.35;39.29;101417.88;5072884;27;45501;-61
2021/09/07 08:45:38;;;;;;;;;14.00;12.00;;;;;27.49;39.15;101415.03;5093368;27;45473;-61
2021/09/07 08:48:04;;;;;;;;;14.50;13.00;;;;;27.61;39.01;101412.38;5069174;27;45579;-61
2021/09/07 08:50:30;;;;;;;;;17.25;14.50;;;;;27.77;39.40;101419.00;5089583;27;45846;-58
2021/09/07 08:52:56;;;;;;;;;13.00;11.00;;;;;27.96;38.90;101417.88;5092092;27;45522;-59
2021/09/07 08:55:22;;;;;;;;;14.00;12.75;;;;;28.15;37.88;101415.13;5091611;27;45439;-59
2021/09/07 08:57:47;;;;;;;;;12.25;10.50;;;;;28.34;37.16;101412.31;5091900;27;54977;-60
2021/09/07 09:00:13;;;;;;;;;11.75;9.50;;;;;28.51;36.75;101415.16;5089431;27;61493;-59
2021/09/07 09:02:43;;;;;;;;;9.75;8.00;;;;;28.66;36.06;101412.78;5085793;27;46164;-62
2021/09/07 09:05:09;;;;;;;;;14.00;11.75;;;;;28.77;36.09;101419.28;5064038;27;45468;-61
2021/09/07 09:07:34;;;;;;;;;12.00;11.50;;;;;28.87;35.28;101422.19;5090990;27;45494;-61
2021/09/07 09:10:00;;;;;;;;;12.75;11.00;;;;;28.99;34.94;101413.25;5095895;27;45470;-61
2021/09/07 09:12:34;;;;;;;;;11.75;10.75;;;;;29.13;35.15;101417.34;5081683;27;45370;-61
2021/09/07 09:15:00;;;;;;;;;13.25;11.25;;;;;29.28;35.09;101415.97;5089929;27;45781;-62
2021/09/07 09:17:32;;;;;;;;;12.25;10.00;;;;;29.41;34.19;101417.63;5089230;27;45359;-62
2021/09/07 09:20:01;;;;;;;;;14.75;13.50;;;;;29.48;34.15;101414.78;5092789;27;46261;-61
2021/09/07 09:22:59;;;;;;;;;11.50;10.25;;;;;29.61;33.02;101419.91;5080401;27;45834;-61
2021/09/07 09:25:32;;;;;;;;;13.00;12.00;;;;;29.72;34.01;101426.31;5060066;27;45489;-61
2021/09/07 09:27:57;;;;;;;;;12.50;11.75;;;;;29.84;32.94;101418.94;5077655;27;45494;-62
2021/09/07 09:30:30;;;;;;;;;11.33;10.00;;;;;29.95;33.03;101416.38;5091340;27;46461;-62
2021/09/07 09:32:58;;;;;;;;;12.25;10.25;;;;;30.09;32.97;101409.63;5092012;27;45378;-61
2021/09/07 09:35:23;;;;;;;;;15.50;11.50;;;;;30.25;32.48;101404.44;5094230;27;45228;-62
2021/09/07 09:38:07;;;;;;;;;14.00;11.50;;;;;30.42;32.21;101396.28;5090409;27;58373;-61
2021/09/07 09:40:33;;;;;;;;;11.00;10.00;;;;;30.59;32.06;101401.69;5087781;27;63902;-61
2021/09/07 09:42:59;;;;;;;;;16.00;11.50;;;;;30.69;31.95;101392.91;5090580;27;46050;-62
2021/09/07 09:45:28;;;;;;;;;13.25;12.00;;;;;30.71;31.54;101390.75;5092378;27;45385;-60
2021/09/07 09:47:56;;;;;;;;;15.25;12.75;;;;;30.80;31.17;101391.94;5085802;27;45420;-62
2021/09/07 09:50:21;;;;;;;;;14.00;13.00;;;;;30.90;31.59;101383.94;5087247;27;47034;-61
2021/09/07 09:52:47;;;;;;;;;12.25;12.00;;;;;30.96;30.79;101389.44;5071374;27;45534;-60
2021/09/07 09:55:13;;;;;;;;;12.75;11.50;;;;;30.97;30.61;101389.19;5090097;27;45460;-61
2021/09/07 09:57:39;;;;;;;;;12.25;11.00;;;;;31.03;30.05;101381.91;5090424;27;45535;-61
2021/09/07 10:00:08;;;;;;;;;13.25;11.75;;;;;31.11;29.94;101389.63;5078673;27;45531;-61
2021/09/07 10:02:33;;;;;;;;;8.75;8.75;;;;;31.20;29.98;101384.56;5083348;27;45878;-61
2021/09/07 10:04:59;;;;;;;;;11.50;11.25;;;;;31.33;30.29;101384.19;5066680;27;45628;-62
2021/09/07 10:07:25;;;;;;;;;14.50;12.25;;;;;31.48;30.52;101382.69;5078120;27;45380;-61
2021/09/07 10:09:51;;;;;;;;;8.50;8.50;;;;;31.61;30.33;101387.69;5078737;27;47249;-61
2021/09/07 10:12:36;;;;;;;;;10.75;9.50;;;;;31.78;30.12;101384.06;5063124;27;45360;-62
2021/09/07 10:15:09;;;;;;;;;14.00;12.75;;;;;31.90;29.17;101382.00;5052465;27;45569;-62
2021/09/07 10:17:45;;;;;;;;;14.00;11.25;;;;;32.01;29.19;101373.94;5085490;27;45477;-61
2021/09/07 10:20:25;;;;;;;;;13.00;12.50;;;;;32.13;29.22;101379.97;5084081;27;46333;-61
2021/09/07 10:25:49;;;;;;;;;14.00;12.25;;;;;32.36;29.10;101375.28;5081924;27;45218;-61
2021/09/07 10:28:43;;;;;;;;;12.50;10.25;;;;;32.51;29.10;101369.09;5084034;27;45574;-61
2021/09/07 10:31:18;;;;;;;;;10.00;10.00;;;;;32.64;29.11;101371.34;5071426;27;45709;-62
2021/09/07 10:33:45;;;;;;;;;11.00;11.00;;;;;32.77;28.47;101363.78;5084072;27;45563;-62
2021/09/07 10:36:12;;;;;;;;;11.50;11.00;;;;;32.86;28.80;101362.19;5068277;28;45506;-61
2021/09/07 10:38:38;;;;;;;;;14.00;12.75;;;;;32.95;28.29;101354.34;5067365;27;45387;-62
2021/09/07 10:41:04;;;;;;;;;11.25;11.25;;;;;33.02;28.22;101346.75;5083979;27;45531;-61
2021/09/07 10:43:51;;;;;;;;;12.00;11.75;;;;;33.11;27.58;101349.75;5064614;27;46636;-62
2021/09/07 10:46:18;;;;;;;;;12.25;11.25;;;;;33.16;27.94;101341.59;5081081;27;45443;-62
2021/09/07 10:48:43;;;;;;;;;9.00;8.75;;;;;33.25;27.84;101342.69;5063606;27;45570;-62
2021/09/07 10:51:09;;;;;;;;;13.00;10.25;;;;;33.37;28.43;101334.25;5078096;27;68900;-61
2021/09/07 10:53:34;;;;;;;;;12.50;11.25;;;;;33.49;27.50;101323.13;5077228;27;64973;-60
2021/09/07 10:56:25;;;;;;;;;12.00;12.00;;;;;33.61;27.28;101322.88;5080164;27;60746;-62
2021/09/07 10:58:51;;;;;;;;;11.75;10.75;;;;;33.64;26.84;101319.59;5082600;27;45684;-61
2021/09/07 11:01:29;;;;;;;;;10.25;9.75;;;;;33.69;27.00;101318.75;5084246;27;46104;-62
2021/09/07 11:04:29;;;;;;;;;12.00;10.25;;;;;33.67;26.53;101312.78;5082099;27;45777;-62
2021/09/07 11:06:55;;;;;;;;;13.25;12.25;;;;;33.64;26.51;101307.88;5079302;27;45355;-62
2021/09/07 11:09:51;;;;;;;;;13.00;11.25;;;;;33.57;27.23;101298.06;5083370;27;62718;-61
2021/09/07 11:12:30;;;;;;;;;11.75;10.75;;;;;33.65;26.17;101293.97;5076415;27;46157;-61